sensor_id;sensor_type;location;lat;lon;timestamp;temperature;humidity
10417;DHT22;62605;49.432;8.680;2022-11-06T00:02:19;7.40;99.90
10417;DHT22;62605;49.432;8.680;2022-11-06T00:04:46;7.50;99.90
10417;DHT22;62605;49.432;8.680;2022-11-06T00:07:15;7.50;99.90
10417;DHT22;62605;49.432;8.680;2022-11-06T00:09:41;7.50;99.90
10417;DHT22;62605;49.432;8.680;2022-11-06T00:12:08;7.50;99.90
10417;DHT22;62605;49.432;8.680;2022-11-06T00:14:36;7.50;99.90
10417;DHT22;62605;49.432;8.680;2022-11-06T00:17:03;7.40;99.90
10417;DHT22;62605;49.432;8.680;2022-11-06T00:19:30;7.50;99.90
10417;DHT22;62605;49.432;8.680;2022-11-06T00:21:57;7.40;99.90
10417;DHT22;62605;49.432;8.680;2022-11-06T00:24:25;7.30;99.90
10417;DHT22;62605;49.432;8.680;2022-11-06T00:26:52;7.30;99.90
10417;DHT22;62605;49.432;8.680;2022-11-06T00:29:19;7.30;99.90
10417;DHT22;62605;49.432;8.680;2022-11-06T00:31:48;7.30;99.90
10417;DHT22;62605;49.432;8.680;2022-11-06T00:34:16;7.30;99.90
10417;DHT22;62605;49.432;8.680;2022-11-06T00:36:43;7.30;99.90
10417;DHT22;62605;49.432;8.680;2022-11-06T00:39:10;7.20;99.90
10417;DHT22;62605;49.432;8.680;2022-11-06T00:41:38;7.30;99.90
10417;DHT22;62605;49.432;8.680;2022-11-06T00:44:07;7.30;99.90
10417;DHT22;62605;49.432;8.680;2022-11-06T00:46:38;7.20;99.90
10417;DHT22;62605;49.432;8.680;2022-11-06T00:49:05;7.30;99.90
10417;DHT22;62605;49.432;8.680;2022-11-06T00:51:33;7.20;99.90
10417;DHT22;62605;49.432;8.680;2022-11-06T00:54:02;7.00;99.90
10417;DHT22;62605;49.432;8.680;2022-11-06T00:56:30;7.00;99.90
10417;DHT22;62605;49.432;8.680;2022-11-06T00:59:02;6.80;99.90
10417;DHT22;62605;49.432;8.680;2022-11-06T01:01:33;6.90;99.90
10417;DHT22;62605;49.432;8.680;2022-11-06T01:04:04;6.90;99.90
10417;DHT22;62605;49.432;8.680;2022-11-06T01:06:33;7.00;99.90
10417;DHT22;62605;49.432;8.680;2022-11-06T01:09:01;7.10;99.90
10417;DHT22;62605;49.432;8.680;2022-11-06T01:11:31;6.90;99.90
10417;DHT22;62605;49.432;8.680;2022-11-06T01:14:01;6.80;99.90
10417;DHT22;62605;49.432;8.680;2022-11-06T01:16:29;6.80;99.90
10417;DHT22;62605;49.432;8.680;2022-11-06T01:18:57;6.70;99.90
10417;DHT22;62605;49.432;8.680;2022-11-06T01:21:26;6.90;99.90
10417;DHT22;62605;49.432;8.680;2022-11-06T01:23:55;6.90;99.90
10417;DHT22;62605;49.432;8.680;2022-11-06T01:26:22;6.90;99.90
10417;DHT22;62605;49.432;8.680;2022-11-06T01:28:50;7.00;99.90
10417;DHT22;62605;49.432;8.680;2022-11-06T01:31:22;6.90;99.90
10417;DHT22;62605;49.432;8.680;2022-11-06T01:33:50;7.00;99.90
10417;DHT22;62605;49.432;8.680;2022-11-06T01:36:19;7.00;99.90
10417;DHT22;62605;49.432;8.680;2022-11-06T01:38:48;7.00;99.90
10417;DHT22;62605;49.432;8.680;2022-11-06T01:41:17;7.00;99.90
10417;DHT22;62605;49.432;8.680;2022-11-06T01:43:47;7.00;99.90
10417;DHT22;62605;49.432;8.680;2022-11-06T01:46:14;7.00;99.90
10417;DHT22;62605;49.432;8.680;2022-11-06T01:48:47;6.80;99.90
10417;DHT22;62605;49.432;8.680;2022-11-06T01:51:15;6.90;99.90
10417;DHT22;62605;49.432;8.680;2022-11-06T01:53:43;6.70;99.90
10417;DHT22;62605;49.432;8.680;2022-11-06T01:56:11;6.70;99.90
10417;DHT22;62605;49.432;8.680;2022-11-06T01:58:41;7.00;99.90
10417;DHT22;62605;49.432;8.680;2022-11-06T02:01:09;6.80;99.90
10417;DHT22;62605;49.432;8.680;2022-11-06T02:03:37;6.70;99.90
10417;DHT22;62605;49.432;8.680;2022-11-06T02:06:09;6.70;99.90
10417;DHT22;62605;49.432;8.680;2022-11-06T02:08:36;6.90;99.90
10417;DHT22;62605;49.432;8.680;2022-11-06T02:11:03;6.80;99.90
10417;DHT22;62605;49.432;8.680;2022-11-06T02:13:39;6.70;99.90
10417;DHT22;62605;49.432;8.680;2022-11-06T02:16:17;6.70;99.90
10417;DHT22;62605;49.432;8.680;2022-11-06T02:18:59;6.90;99.90
10417;DHT22;62605;49.432;8.680;2022-11-06T02:21:59;7.00;99.90
10417;DHT22;62605;49.432;8.680;2022-11-06T02:27:34;7.20;99.90
10417;DHT22;62605;49.432;8.680;2022-11-06T02:30:03;7.30;99.90
10417;DHT22;62605;49.432;8.680;2022-11-06T02:32:35;7.10;99.90
10417;DHT22;62605;49.432;8.680;2022-11-06T02:35:12;7.10;99.90
10417;DHT22;62605;49.432;8.680;2022-11-06T02:37:43;7.10;99.90
10417;DHT22;62605;49.432;8.680;2022-11-06T02:40:12;7.10;99.90
10417;DHT22;62605;49.432;8.680;2022-11-06T02:42:44;6.90;99.90
10417;DHT22;62605;49.432;8.680;2022-11-06T02:45:14;7.00;99.90
10417;DHT22;62605;49.432;8.680;2022-11-06T02:47:45;7.00;99.90
10417;DHT22;62605;49.432;8.680;2022-11-06T02:50:17;6.90;99.90
10417;DHT22;62605;49.432;8.680;2022-11-06T02:52:49;6.90;99.90
10417;DHT22;62605;49.432;8.680;2022-11-06T02:55:26;6.80;99.90
10417;DHT22;62605;49.432;8.680;2022-11-06T02:57:59;6.80;99.90
10417;DHT22;62605;49.432;8.680;2022-11-06T03:00:26;6.80;99.90
10417;DHT22;62605;49.432;8.680;2022-11-06T03:02:58;6.80;99.90
10417;DHT22;62605;49.432;8.680;2022-11-06T03:05:30;7.30;99.90
10417;DHT22;62605;49.432;8.680;2022-11-06T03:08:01;7.30;99.90
10417;DHT22;62605;49.432;8.680;2022-11-06T03:10:36;7.20;99.90
10417;DHT22;62605;49.432;8.680;2022-11-06T03:13:13;7.20;99.90
10417;DHT22;62605;49.432;8.680;2022-11-06T03:15:46;7.10;99.90
10417;DHT22;62605;49.432;8.680;2022-11-06T03:18:19;7.20;99.90
10417;DHT22;62605;49.432;8.680;2022-11-06T03:20:55;7.20;99.90
10417;DHT22;62605;49.432;8.680;2022-11-06T03:23:27;6.90;99.90
10417;DHT22;62605;49.432;8.680;2022-11-06T03:26:02;6.80;99.90
10417;DHT22;62605;49.432;8.680;2022-11-06T03:28:38;6.80;99.90
10417;DHT22;62605;49.432;8.680;2022-11-06T03:31:09;6.90;99.90
10417;DHT22;62605;49.432;8.680;2022-11-06T03:33:40;6.90;99.90
10417;DHT22;62605;49.432;8.680;2022-11-06T03:36:12;6.90;99.90
10417;DHT22;62605;49.432;8.680;2022-11-06T03:38:45;6.70;99.90
10417;DHT22;62605;49.432;8.680;2022-11-06T03:41:19;6.70;99.90
10417;DHT22;62605;49.432;8.680;2022-11-06T03:43:51;6.70;99.90
10417;DHT22;62605;49.432;8.680;2022-11-06T03:46:21;6.80;99.90
10417;DHT22;62605;49.432;8.680;2022-11-06T03:48:51;6.60;99.90
10417;DHT22;62605;49.432;8.680;2022-11-06T03:51:22;6.70;99.90
10417;DHT22;62605;49.432;8.680;2022-11-06T03:53:54;6.60;99.90
10417;DHT22;62605;49.432;8.680;2022-11-06T03:56:25;6.70;99.90
10417;DHT22;62605;49.432;8.680;2022-11-06T03:58:57;6.80;99.90
10417;DHT22;62605;49.432;8.680;2022-11-06T04:01:28;6.80;99.90
10417;DHT22;62605;49.432;8.680;2022-11-06T04:04:00;6.80;99.90
10417;DHT22;62605;49.432;8.680;2022-11-06T04:06:31;6.70;99.90
10417;DHT22;62605;49.432;8.680;2022-11-06T04:09:03;6.70;99.90
10417;DHT22;62605;49.432;8.680;2022-11-06T04:11:48;6.60;99.90
10417;DHT22;62605;49.432;8.680;2022-11-06T04:14:44;6.60;99.90
10417;DHT22;62605;49.432;8.680;2022-11-06T04:17:12;6.70;99.90
10417;DHT22;62605;49.432;8.680;2022-11-06T04:19:45;6.70;99.90
10417;DHT22;62605;49.432;8.680;2022-11-06T04:22:27;6.60;99.90
10417;DHT22;62605;49.432;8.680;2022-11-06T04:25:06;6.90;99.90
10417;DHT22;62605;49.432;8.680;2022-11-06T04:28:07;6.90;99.90
10417;DHT22;62605;49.432;8.680;2022-11-06T04:30:42;7.00;99.90
10417;DHT22;62605;49.432;8.680;2022-11-06T04:33:14;7.30;99.90
10417;DHT22;62605;49.432;8.680;2022-11-06T04:35:52;7.10;99.90
10417;DHT22;62605;49.432;8.680;2022-11-06T04:38:28;7.10;99.90
10417;DHT22;62605;49.432;8.680;2022-11-06T04:41:08;7.00;99.90
10417;DHT22;62605;49.432;8.680;2022-11-06T04:43:42;6.80;99.90
10417;DHT22;62605;49.432;8.680;2022-11-06T04:46:15;6.90;99.90
10417;DHT22;62605;49.432;8.680;2022-11-06T04:48:44;7.10;99.90
10417;DHT22;62605;49.432;8.680;2022-11-06T04:51:13;7.20;99.90
10417;DHT22;62605;49.432;8.680;2022-11-06T04:53:41;7.10;99.90
10417;DHT22;62605;49.432;8.680;2022-11-06T04:56:11;7.40;99.90
10417;DHT22;62605;49.432;8.680;2022-11-06T04:58:38;7.40;99.90
10417;DHT22;62605;49.432;8.680;2022-11-06T05:01:05;7.10;99.90
10417;DHT22;62605;49.432;8.680;2022-11-06T05:03:34;7.00;99.90
10417;DHT22;62605;49.432;8.680;2022-11-06T05:06:01;6.90;99.90
10417;DHT22;62605;49.432;8.680;2022-11-06T05:08:28;7.20;99.90
10417;DHT22;62605;49.432;8.680;2022-11-06T05:10:55;7.50;99.90
10417;DHT22;62605;49.432;8.680;2022-11-06T05:13:21;7.50;99.90
10417;DHT22;62605;49.432;8.680;2022-11-06T05:15:48;7.30;99.90
10417;DHT22;62605;49.432;8.680;2022-11-06T05:18:20;7.50;99.90
10417;DHT22;62605;49.432;8.680;2022-11-06T05:20:48;7.40;99.90
10417;DHT22;62605;49.432;8.680;2022-11-06T05:23:35;7.00;99.90
10417;DHT22;62605;49.432;8.680;2022-11-06T05:26:03;7.20;99.90
10417;DHT22;62605;49.432;8.680;2022-11-06T05:28:30;7.80;99.90
10417;DHT22;62605;49.432;8.680;2022-11-06T05:30:57;7.30;99.90
10417;DHT22;62605;49.432;8.680;2022-11-06T05:33:24;7.00;99.90
10417;DHT22;62605;49.432;8.680;2022-11-06T05:35:52;6.90;99.90
10417;DHT22;62605;49.432;8.680;2022-11-06T05:38:19;6.90;99.90
10417;DHT22;62605;49.432;8.680;2022-11-06T05:40:46;7.10;99.90
10417;DHT22;62605;49.432;8.680;2022-11-06T05:43:13;7.00;99.90
10417;DHT22;62605;49.432;8.680;2022-11-06T05:45:40;7.20;99.90
10417;DHT22;62605;49.432;8.680;2022-11-06T05:48:07;6.90;99.90
10417;DHT22;62605;49.432;8.680;2022-11-06T05:50:34;6.90;99.90
10417;DHT22;62605;49.432;8.680;2022-11-06T05:53:03;6.60;99.90
10417;DHT22;62605;49.432;8.680;2022-11-06T05:55:30;6.70;99.90
10417;DHT22;62605;49.432;8.680;2022-11-06T05:57:57;6.80;99.90
10417;DHT22;62605;49.432;8.680;2022-11-06T06:00:24;6.50;99.90
10417;DHT22;62605;49.432;8.680;2022-11-06T06:02:51;6.80;99.90
10417;DHT22;62605;49.432;8.680;2022-11-06T06:05:18;6.70;99.90
10417;DHT22;62605;49.432;8.680;2022-11-06T06:07:44;6.90;99.90
10417;DHT22;62605;49.432;8.680;2022-11-06T06:10:13;7.10;99.90
10417;DHT22;62605;49.432;8.680;2022-11-06T06:12:40;6.90;99.90
10417;DHT22;62605;49.432;8.680;2022-11-06T06:15:09;7.00;99.90
10417;DHT22;62605;49.432;8.680;2022-11-06T06:17:36;7.20;99.90
10417;DHT22;62605;49.432;8.680;2022-11-06T06:20:03;7.20;99.90
10417;DHT22;62605;49.432;8.680;2022-11-06T06:22:30;7.20;99.90
10417;DHT22;62605;49.432;8.680;2022-11-06T06:24:57;7.20;99.90
10417;DHT22;62605;49.432;8.680;2022-11-06T06:27:26;6.90;99.90
10417;DHT22;62605;49.432;8.680;2022-11-06T06:29:53;6.90;99.90
10417;DHT22;62605;49.432;8.680;2022-11-06T06:32:20;7.00;99.90
10417;DHT22;62605;49.432;8.680;2022-11-06T06:34:46;7.10;99.90
10417;DHT22;62605;49.432;8.680;2022-11-06T06:37:13;7.00;99.90
10417;DHT22;62605;49.432;8.680;2022-11-06T06:39:40;6.90;99.90
10417;DHT22;62605;49.432;8.680;2022-11-06T06:42:07;6.70;99.90
10417;DHT22;62605;49.432;8.680;2022-11-06T06:44:36;6.60;99.90
10417;DHT22;62605;49.432;8.680;2022-11-06T06:47:03;6.70;99.90
10417;DHT22;62605;49.432;8.680;2022-11-06T06:49:30;6.80;99.90
10417;DHT22;62605;49.432;8.680;2022-11-06T06:51:57;7.00;99.90
10417;DHT22;62605;49.432;8.680;2022-11-06T06:54:24;6.80;99.90
10417;DHT22;62605;49.432;8.680;2022-11-06T06:56:51;7.10;99.90
10417;DHT22;62605;49.432;8.680;2022-11-06T06:59:19;6.80;99.90
10417;DHT22;62605;49.432;8.680;2022-11-06T07:01:47;6.90;99.90
10417;DHT22;62605;49.432;8.680;2022-11-06T07:04:14;6.80;99.90
10417;DHT22;62605;49.432;8.680;2022-11-06T07:06:41;6.90;99.90
10417;DHT22;62605;49.432;8.680;2022-11-06T07:09:08;6.70;99.90
10417;DHT22;62605;49.432;8.680;2022-11-06T07:11:34;6.70;99.90
10417;DHT22;62605;49.432;8.680;2022-11-06T07:14:01;6.70;99.90
10417;DHT22;62605;49.432;8.680;2022-11-06T07:16:29;6.50;99.90
10417;DHT22;62605;49.432;8.680;2022-11-06T07:18:59;6.30;99.90
10417;DHT22;62605;49.432;8.680;2022-11-06T07:21:26;6.40;99.90
10417;DHT22;62605;49.432;8.680;2022-11-06T07:23:53;6.40;99.90
10417;DHT22;62605;49.432;8.680;2022-11-06T07:26:20;6.40;99.90
10417;DHT22;62605;49.432;8.680;2022-11-06T07:28:47;6.50;99.90
10417;DHT22;62605;49.432;8.680;2022-11-06T07:31:14;6.50;99.90
10417;DHT22;62605;49.432;8.680;2022-11-06T07:33:44;6.70;99.90
10417;DHT22;62605;49.432;8.680;2022-11-06T07:36:13;6.70;99.90
10417;DHT22;62605;49.432;8.680;2022-11-06T07:38:41;6.80;99.90
10417;DHT22;62605;49.432;8.680;2022-11-06T07:41:11;6.50;99.90
10417;DHT22;62605;49.432;8.680;2022-11-06T07:43:39;6.60;99.90
10417;DHT22;62605;49.432;8.680;2022-11-06T07:46:08;6.70;99.90
10417;DHT22;62605;49.432;8.680;2022-11-06T07:48:35;6.80;99.90
10417;DHT22;62605;49.432;8.680;2022-11-06T07:51:04;6.70;99.90
10417;DHT22;62605;49.432;8.680;2022-11-06T07:53:35;6.80;99.90
10417;DHT22;62605;49.432;8.680;2022-11-06T07:56:02;6.80;99.90
10417;DHT22;62605;49.432;8.680;2022-11-06T07:58:29;7.00;99.90
10417;DHT22;62605;49.432;8.680;2022-11-06T08:00:58;7.00;99.90
10417;DHT22;62605;49.432;8.680;2022-11-06T08:03:27;7.30;99.90
10417;DHT22;62605;49.432;8.680;2022-11-06T08:05:54;7.20;99.90
10417;DHT22;62605;49.432;8.680;2022-11-06T08:08:21;7.10;99.90
10417;DHT22;62605;49.432;8.680;2022-11-06T08:10:50;7.20;99.90
10417;DHT22;62605;49.432;8.680;2022-11-06T08:13:18;7.30;99.90
10417;DHT22;62605;49.432;8.680;2022-11-06T08:15:45;7.30;99.90
10417;DHT22;62605;49.432;8.680;2022-11-06T08:18:12;7.20;99.90
10417;DHT22;62605;49.432;8.680;2022-11-06T08:20:39;7.20;99.90
10417;DHT22;62605;49.432;8.680;2022-11-06T08:23:08;7.20;99.90
10417;DHT22;62605;49.432;8.680;2022-11-06T08:25:36;7.40;99.90
10417;DHT22;62605;49.432;8.680;2022-11-06T08:28:05;7.60;99.90
10417;DHT22;62605;49.432;8.680;2022-11-06T08:30:32;7.90;99.90
10417;DHT22;62605;49.432;8.680;2022-11-06T08:33:00;7.80;99.90
10417;DHT22;62605;49.432;8.680;2022-11-06T08:35:28;8.10;99.90
10417;DHT22;62605;49.432;8.680;2022-11-06T08:37:55;8.10;99.90
10417;DHT22;62605;49.432;8.680;2022-11-06T08:40:23;8.30;99.90
10417;DHT22;62605;49.432;8.680;2022-11-06T08:42:51;8.30;99.90
10417;DHT22;62605;49.432;8.680;2022-11-06T08:45:20;8.50;99.90
10417;DHT22;62605;49.432;8.680;2022-11-06T08:47:47;8.60;99.90
10417;DHT22;62605;49.432;8.680;2022-11-06T08:50:14;8.70;1.00
10417;DHT22;62605;49.432;8.680;2022-11-06T08:52:41;8.70;1.00
10417;DHT22;62605;49.432;8.680;2022-11-06T08:55:09;8.80;1.00
10417;DHT22;62605;49.432;8.680;2022-11-06T08:57:36;8.80;1.00
10417;DHT22;62605;49.432;8.680;2022-11-06T09:00:03;8.60;1.00
10417;DHT22;62605;49.432;8.680;2022-11-06T09:02:33;8.60;1.00
10417;DHT22;62605;49.432;8.680;2022-11-06T09:05:00;8.50;1.00
10417;DHT22;62605;49.432;8.680;2022-11-06T09:07:27;8.90;1.00
10417;DHT22;62605;49.432;8.680;2022-11-06T09:09:54;8.80;1.00
10417;DHT22;62605;49.432;8.680;2022-11-06T09:12:22;8.80;1.00
10417;DHT22;62605;49.432;8.680;2022-11-06T09:14:48;8.70;1.00
10417;DHT22;62605;49.432;8.680;2022-11-06T09:17:16;9.00;1.00
10417;DHT22;62605;49.432;8.680;2022-11-06T09:19:49;8.70;1.00
10417;DHT22;62605;49.432;8.680;2022-11-06T09:22:16;8.80;1.00
10417;DHT22;62605;49.432;8.680;2022-11-06T09:24:43;9.00;1.00
10417;DHT22;62605;49.432;8.680;2022-11-06T09:27:11;9.00;1.00
10417;DHT22;62605;49.432;8.680;2022-11-06T09:29:38;8.90;1.00
10417;DHT22;62605;49.432;8.680;2022-11-06T09:32:08;9.30;1.00
10417;DHT22;62605;49.432;8.680;2022-11-06T09:34:35;9.40;1.00
10417;DHT22;62605;49.432;8.680;2022-11-06T09:37:04;9.50;1.00
10417;DHT22;62605;49.432;8.680;2022-11-06T09:39:31;9.60;1.00
10417;DHT22;62605;49.432;8.680;2022-11-06T09:42:00;9.80;1.00
10417;DHT22;62605;49.432;8.680;2022-11-06T09:44:45;9.80;1.00
10417;DHT22;62605;49.432;8.680;2022-11-06T09:47:17;9.70;1.00
10417;DHT22;62605;49.432;8.680;2022-11-06T09:49:48;9.70;1.00
10417;DHT22;62605;49.432;8.680;2022-11-06T09:52:25;9.50;1.00
10417;DHT22;62605;49.432;8.680;2022-11-06T09:55:00;9.60;1.00
10417;DHT22;62605;49.432;8.680;2022-11-06T09:57:34;9.90;1.00
10417;DHT22;62605;49.432;8.680;2022-11-06T10:00:03;9.90;1.00
10417;DHT22;62605;49.432;8.680;2022-11-06T10:02:36;10.10;1.00
10417;DHT22;62605;49.432;8.680;2022-11-06T10:05:10;10.10;1.00
10417;DHT22;62605;49.432;8.680;2022-11-06T10:07:41;10.10;1.00
10417;DHT22;62605;49.432;8.680;2022-11-06T10:10:15;10.10;1.00
10417;DHT22;62605;49.432;8.680;2022-11-06T10:12:55;10.30;1.00
10417;DHT22;62605;49.432;8.680;2022-11-06T10:15:30;10.10;1.00
10417;DHT22;62605;49.432;8.680;2022-11-06T10:18:04;10.30;1.00
10417;DHT22;62605;49.432;8.680;2022-11-06T10:20:40;10.50;1.00
10417;DHT22;62605;49.432;8.680;2022-11-06T10:23:19;10.50;1.00
10417;DHT22;62605;49.432;8.680;2022-11-06T10:25:58;10.40;99.90
10417;DHT22;62605;49.432;8.680;2022-11-06T10:28:41;10.40;99.90
10417;DHT22;62605;49.432;8.680;2022-11-06T10:31:20;10.30;99.90
10417;DHT22;62605;49.432;8.680;2022-11-06T10:33:57;10.40;99.90
10417;DHT22;62605;49.432;8.680;2022-11-06T10:36:29;10.30;99.90
10417;DHT22;62605;49.432;8.680;2022-11-06T10:39:00;10.30;99.90
10417;DHT22;62605;49.432;8.680;2022-11-06T10:41:32;10.30;99.90
10417;DHT22;62605;49.432;8.680;2022-11-06T10:44:06;10.20;99.90
10417;DHT22;62605;49.432;8.680;2022-11-06T10:46:35;10.20;99.90
10417;DHT22;62605;49.432;8.680;2022-11-06T10:52:06;10.20;99.90
10417;DHT22;62605;49.432;8.680;2022-11-06T10:54:45;10.00;99.90
10417;DHT22;62605;49.432;8.680;2022-11-06T10:57:26;10.30;99.90
10417;DHT22;62605;49.432;8.680;2022-11-06T10:59:54;10.50;99.90
10417;DHT22;62605;49.432;8.680;2022-11-06T11:02:25;10.60;99.90
10417;DHT22;62605;49.432;8.680;2022-11-06T11:04:53;10.60;99.90
10417;DHT22;62605;49.432;8.680;2022-11-06T11:07:21;10.50;99.90
10417;DHT22;62605;49.432;8.680;2022-11-06T11:09:49;10.50;99.90
10417;DHT22;62605;49.432;8.680;2022-11-06T11:12:22;10.50;99.90
10417;DHT22;62605;49.432;8.680;2022-11-06T11:15:05;10.80;99.90
10417;DHT22;62605;49.432;8.680;2022-11-06T11:17:36;11.20;99.90
10417;DHT22;62605;49.432;8.680;2022-11-06T11:20:28;11.10;99.90
10417;DHT22;62605;49.432;8.680;2022-11-06T11:23:14;11.30;99.90
10417;DHT22;62605;49.432;8.680;2022-11-06T11:25:45;11.20;99.90
10417;DHT22;62605;49.432;8.680;2022-11-06T11:28:26;11.20;99.90
10417;DHT22;62605;49.432;8.680;2022-11-06T11:30:55;11.20;99.90
10417;DHT22;62605;49.432;8.680;2022-11-06T11:33:25;11.30;99.90
10417;DHT22;62605;49.432;8.680;2022-11-06T11:35:53;11.30;99.90
10417;DHT22;62605;49.432;8.680;2022-11-06T11:38:20;11.50;99.90
10417;DHT22;62605;49.432;8.680;2022-11-06T11:40:51;11.30;99.90
10417;DHT22;62605;49.432;8.680;2022-11-06T11:43:24;11.30;99.90
10417;DHT22;62605;49.432;8.680;2022-11-06T11:46:13;11.30;99.90
10417;DHT22;62605;49.432;8.680;2022-11-06T11:48:44;11.20;99.90
10417;DHT22;62605;49.432;8.680;2022-11-06T11:51:34;11.40;99.90
10417;DHT22;62605;49.432;8.680;2022-11-06T11:54:14;11.70;99.90
10417;DHT22;62605;49.432;8.680;2022-11-06T11:56:47;11.60;99.90
10417;DHT22;62605;49.432;8.680;2022-11-06T11:59:17;11.50;99.90
10417;DHT22;62605;49.432;8.680;2022-11-06T12:01:45;11.40;99.90
10417;DHT22;62605;49.432;8.680;2022-11-06T12:04:18;11.50;99.90
10417;DHT22;62605;49.432;8.680;2022-11-06T12:06:53;11.60;99.90
10417;DHT22;62605;49.432;8.680;2022-11-06T12:09:21;11.70;99.90
10417;DHT22;62605;49.432;8.680;2022-11-06T12:11:52;11.60;99.90
10417;DHT22;62605;49.432;8.680;2022-11-06T12:14:35;11.50;99.90
10417;DHT22;62605;49.432;8.680;2022-11-06T12:17:16;11.30;99.90
10417;DHT22;62605;49.432;8.680;2022-11-06T12:19:48;11.30;99.90
10417;DHT22;62605;49.432;8.680;2022-11-06T12:22:23;11.40;99.90
10417;DHT22;62605;49.432;8.680;2022-11-06T12:24:54;11.60;99.90
10417;DHT22;62605;49.432;8.680;2022-11-06T12:27:43;11.50;99.90
10417;DHT22;62605;49.432;8.680;2022-11-06T12:30:14;11.60;99.90
10417;DHT22;62605;49.432;8.680;2022-11-06T12:32:59;11.60;99.90
10417;DHT22;62605;49.432;8.680;2022-11-06T12:35:28;11.60;99.90
10417;DHT22;62605;49.432;8.680;2022-11-06T12:38:03;11.40;99.90
10417;DHT22;62605;49.432;8.680;2022-11-06T12:40:34;11.40;99.90
10417;DHT22;62605;49.432;8.680;2022-11-06T12:43:13;11.40;99.90
10417;DHT22;62605;49.432;8.680;2022-11-06T12:45:54;11.40;99.90
10417;DHT22;62605;49.432;8.680;2022-11-06T12:49:01;11.40;99.90
10417;DHT22;62605;49.432;8.680;2022-11-06T12:51:39;11.40;99.90
10417;DHT22;62605;49.432;8.680;2022-11-06T12:54:25;11.50;99.90
10417;DHT22;62605;49.432;8.680;2022-11-06T12:57:02;11.70;99.90
10417;DHT22;62605;49.432;8.680;2022-11-06T12:59:42;11.60;99.90
10417;DHT22;62605;49.432;8.680;2022-11-06T13:02:27;11.40;99.90
10417;DHT22;62605;49.432;8.680;2022-11-06T13:05:01;11.60;99.90
10417;DHT22;62605;49.432;8.680;2022-11-06T13:07:39;11.70;99.90
10417;DHT22;62605;49.432;8.680;2022-11-06T13:10:20;11.50;99.90
10417;DHT22;62605;49.432;8.680;2022-11-06T13:12:57;11.40;99.90
10417;DHT22;62605;49.432;8.680;2022-11-06T13:15:34;11.40;99.90
10417;DHT22;62605;49.432;8.680;2022-11-06T13:18:10;11.40;99.90
10417;DHT22;62605;49.432;8.680;2022-11-06T13:20:43;11.50;99.90
10417;DHT22;62605;49.432;8.680;2022-11-06T13:23:18;11.50;99.90
10417;DHT22;62605;49.432;8.680;2022-11-06T13:25:52;11.50;99.90
10417;DHT22;62605;49.432;8.680;2022-11-06T13:28:26;11.50;99.90
10417;DHT22;62605;49.432;8.680;2022-11-06T13:30:56;11.60;99.90
10417;DHT22;62605;49.432;8.680;2022-11-06T13:33:26;11.60;99.90
10417;DHT22;62605;49.432;8.680;2022-11-06T13:35:54;11.50;99.90
10417;DHT22;62605;49.432;8.680;2022-11-06T13:38:26;11.40;99.90
10417;DHT22;62605;49.432;8.680;2022-11-06T13:40:57;11.50;99.90
10417;DHT22;62605;49.432;8.680;2022-11-06T13:43:28;11.60;99.90
10417;DHT22;62605;49.432;8.680;2022-11-06T13:46:07;11.60;99.90
10417;DHT22;62605;49.432;8.680;2022-11-06T13:48:43;11.50;99.90
10417;DHT22;62605;49.432;8.680;2022-11-06T13:51:20;11.50;99.90
10417;DHT22;62605;49.432;8.680;2022-11-06T13:53:56;11.60;99.90
10417;DHT22;62605;49.432;8.680;2022-11-06T13:56:46;11.70;99.90
10417;DHT22;62605;49.432;8.680;2022-11-06T14:02:36;11.50;99.90
10417;DHT22;62605;49.432;8.680;2022-11-06T14:05:45;11.50;99.90
10417;DHT22;62605;49.432;8.680;2022-11-06T14:08:17;11.50;99.90
10417;DHT22;62605;49.432;8.680;2022-11-06T14:10:50;11.50;99.90
10417;DHT22;62605;49.432;8.680;2022-11-06T14:13:23;11.40;99.90
10417;DHT22;62605;49.432;8.680;2022-11-06T14:15:59;11.40;99.90
10417;DHT22;62605;49.432;8.680;2022-11-06T14:18:28;11.50;99.90
10417;DHT22;62605;49.432;8.680;2022-11-06T14:24:33;11.40;99.90
10417;DHT22;62605;49.432;8.680;2022-11-06T14:27:02;11.30;99.90
10417;DHT22;62605;49.432;8.680;2022-11-06T14:29:59;11.50;99.90
10417;DHT22;62605;49.432;8.680;2022-11-06T14:32:50;11.50;99.90
10417;DHT22;62605;49.432;8.680;2022-11-06T14:35:52;11.50;99.90
10417;DHT22;62605;49.432;8.680;2022-11-06T14:38:37;11.60;99.90
10417;DHT22;62605;49.432;8.680;2022-11-06T14:47:28;11.40;99.90
10417;DHT22;62605;49.432;8.680;2022-11-06T14:49:57;11.40;99.90
10417;DHT22;62605;49.432;8.680;2022-11-06T14:52:28;11.40;99.90
10417;DHT22;62605;49.432;8.680;2022-11-06T14:55:06;11.60;99.90
10417;DHT22;62605;49.432;8.680;2022-11-06T14:57:43;11.60;99.90
10417;DHT22;62605;49.432;8.680;2022-11-06T15:00:37;11.70;99.90
10417;DHT22;62605;49.432;8.680;2022-11-06T15:03:17;11.70;99.90
10417;DHT22;62605;49.432;8.680;2022-11-06T15:05:45;11.60;99.90
10417;DHT22;62605;49.432;8.680;2022-11-06T15:08:53;11.60;99.90
10417;DHT22;62605;49.432;8.680;2022-11-06T15:11:50;11.60;99.90
10417;DHT22;62605;49.432;8.680;2022-11-06T15:17:25;11.30;99.90
10417;DHT22;62605;49.432;8.680;2022-11-06T15:20:04;11.30;99.90
10417;DHT22;62605;49.432;8.680;2022-11-06T15:22:35;11.30;99.90
10417;DHT22;62605;49.432;8.680;2022-11-06T15:25:19;11.20;99.90
10417;DHT22;62605;49.432;8.680;2022-11-06T15:27:52;11.10;99.90
10417;DHT22;62605;49.432;8.680;2022-11-06T15:30:21;11.00;99.90
10417;DHT22;62605;49.432;8.680;2022-11-06T15:32:51;11.10;99.90
10417;DHT22;62605;49.432;8.680;2022-11-06T15:35:20;11.10;99.90
10417;DHT22;62605;49.432;8.680;2022-11-06T15:37:51;10.90;99.90
10417;DHT22;62605;49.432;8.680;2022-11-06T15:40:26;10.90;99.90
10417;DHT22;62605;49.432;8.680;2022-11-06T15:42:58;10.90;99.90
10417;DHT22;62605;49.432;8.680;2022-11-06T15:45:28;11.00;99.90
10417;DHT22;62605;49.432;8.680;2022-11-06T15:47:57;11.10;99.90
10417;DHT22;62605;49.432;8.680;2022-11-06T15:50:26;11.00;99.90
10417;DHT22;62605;49.432;8.680;2022-11-06T15:53:03;10.90;99.90
10417;DHT22;62605;49.432;8.680;2022-11-06T15:55:38;11.00;99.90
10417;DHT22;62605;49.432;8.680;2022-11-06T15:58:07;11.00;99.90
10417;DHT22;62605;49.432;8.680;2022-11-06T16:00:35;10.80;99.90
10417;DHT22;62605;49.432;8.680;2022-11-06T16:03:19;10.90;99.90
10417;DHT22;62605;49.432;8.680;2022-11-06T16:05:47;11.20;99.90
10417;DHT22;62605;49.432;8.680;2022-11-06T16:08:16;11.20;99.90
10417;DHT22;62605;49.432;8.680;2022-11-06T16:10:46;11.30;99.90
10417;DHT22;62605;49.432;8.680;2022-11-06T16:13:17;11.10;99.90
10417;DHT22;62605;49.432;8.680;2022-11-06T16:15:50;11.20;99.90
10417;DHT22;62605;49.432;8.680;2022-11-06T16:18:22;11.00;99.90
10417;DHT22;62605;49.432;8.680;2022-11-06T16:45:27;11.20;99.90
10417;DHT22;62605;49.432;8.680;2022-11-06T16:48:24;11.20;99.90
10417;DHT22;62605;49.432;8.680;2022-11-06T16:50:55;11.10;99.90
10417;DHT22;62605;49.432;8.680;2022-11-06T16:53:25;11.10;99.90
10417;DHT22;62605;49.432;8.680;2022-11-06T16:55:54;11.10;99.90
10417;DHT22;62605;49.432;8.680;2022-11-06T16:58:22;11.10;99.90
10417;DHT22;62605;49.432;8.680;2022-11-06T17:00:58;11.20;99.90